Time;durP1;ratioP1;P1;durP2;ratioP2;P2;SDS_P1;SDS_P2;PMS_P1;PMS_P2;Temp;Humidity;BMP_temperature;BMP_pressure;BME280_temperature;BME280_humidity;BME280_pressure;Samples;Min_cycle;Max_cycle;Signal;HPM_P1;HPM_P2
2022/03/28 00:01:52;;;;;;;13.13;8.40;;;;;;;;;;4985118;28;20179;-82
2022/03/28 00:04:19;;;;;;;14.80;9.40;;;;;;;;;;4982711;28;20251;-82
2022/03/28 00:06:45;;;;;;;16.13;9.65;;;;;;;;;;4980265;28;20267;-82
2022/03/28 00:09:11;;;;;;;13.35;7.88;;;;;;;;;;4986493;28;20211;-82
2022/03/28 00:11:37;;;;;;;13.88;9.63;;;;;;;;;;4985162;28;20212;-82
2022/03/28 00:14:03;;;;;;;11.90;8.55;;;;;;;;;;4987387;28;20263;-82
2022/03/28 00:16:29;;;;;;;12.77;8.60;;;;;;;;;;4985672;28;20238;-82
2022/03/28 00:18:56;;;;;;;13.73;8.82;;;;;;;;;;4987407;28;20202;-82
2022/03/28 00:21:22;;;;;;;15.60;8.63;;;;;;;;;;4985810;28;20207;-82
2022/03/28 00:23:48;;;;;;;11.88;8.00;;;;;;;;;;4986661;28;20255;-82
2022/03/28 00:26:14;;;;;;;13.15;8.85;;;;;;;;;;4988587;28;20183;-82
2022/03/28 00:28:40;;;;;;;14.82;9.48;;;;;;;;;;4987160;28;20195;-82
2022/03/28 00:31:07;;;;;;;14.15;9.50;;;;;;;;;;5000836;28;20192;-82
2022/03/28 00:33:33;;;;;;;11.38;8.27;;;;;;;;;;4985706;28;20180;-82
2022/03/28 00:35:59;;;;;;;12.45;8.32;;;;;;;;;;4986377;28;20180;-82
2022/03/28 00:38:25;;;;;;;15.18;9.32;;;;;;;;;;4987083;28;20207;-82
2022/03/28 00:40:51;;;;;;;15.55;9.15;;;;;;;;;;4986079;28;20227;-82
2022/03/28 00:43:17;;;;;;;19.10;9.95;;;;;;;;;;4986111;28;20206;-82
2022/03/28 00:45:44;;;;;;;16.05;8.68;;;;;;;;;;4984399;28;20250;-82
2022/03/28 00:48:10;;;;;;;14.35;10.00;;;;;;;;;;4985663;28;20191;-82
2022/03/28 00:50:37;;;;;;;16.70;8.85;;;;;;;;;;5001634;28;20192;-82
2022/03/28 00:53:05;;;;;;;18.80;10.02;;;;;;;;;;4985734;28;20554;-82
2022/03/28 00:55:31;;;;;;;15.82;9.48;;;;;;;;;;4986574;28;20195;-82
2022/03/28 00:57:57;;;;;;;14.25;9.05;;;;;;;;;;4982020;28;20216;-83
2022/03/28 01:00:23;;;;;;;17.33;10.55;;;;;;;;;;4990534;28;20183;-82
2022/03/28 01:02:49;;;;;;;15.25;8.98;;;;;;;;;;4986608;28;20180;-82
2022/03/28 01:05:15;;;;;;;14.85;8.45;;;;;;;;;;5001847;28;20924;-82
2022/03/28 01:07:42;;;;;;;22.67;10.18;;;;;;;;;;4998992;28;20184;-82
2022/03/28 01:10:12;;;;;;;13.43;8.88;;;;;;;;;;4986345;28;20276;-82
2022/03/28 01:12:42;;;;;;;13.35;8.02;;;;;;;;;;4984579;28;20228;-82
2022/03/28 01:15:08;;;;;;;12.40;8.48;;;;;;;;;;4985349;28;20188;-83
2022/03/28 01:20:19;;;;;;;16.23;9.82;;;;;;;;;;4986621;28;20191;-82
2022/03/28 01:22:45;;;;;;;14.47;9.27;;;;;;;;;;4986233;28;20180;-82
2022/03/28 01:25:11;;;;;;;14.15;9.38;;;;;;;;;;4986785;28;20423;-82
2022/03/28 01:27:38;;;;;;;20.40;9.80;;;;;;;;;;4983123;28;20203;-82
2022/03/28 01:30:05;;;;;;;17.08;9.10;;;;;;;;;;4971670;28;20177;-82
2022/03/28 01:32:32;;;;;;;19.77;10.45;;;;;;;;;;4984929;28;20179;-82
2022/03/28 01:34:58;;;;;;;18.98;10.02;;;;;;;;;;4986232;28;20176;-82
2022/03/28 01:37:24;;;;;;;17.33;9.68;;;;;;;;;;4982866;28;20234;-82
2022/03/28 01:39:50;;;;;;;12.85;8.98;;;;;;;;;;4980222;28;20189;-82
2022/03/28 01:42:16;;;;;;;16.85;10.20;;;;;;;;;;4973855;28;20195;-82
2022/03/28 01:44:42;;;;;;;14.50;8.35;;;;;;;;;;4986028;28;20556;-82
2022/03/28 01:47:08;;;;;;;17.27;9.50;;;;;;;;;;4986434;28;20180;-82
2022/03/28 01:49:34;;;;;;;20.98;9.18;;;;;;;;;;4986084;28;20592;-82
2022/03/28 01:52:00;;;;;;;15.95;9.98;;;;;;;;;;4984899;28;20223;-82
2022/03/28 01:54:26;;;;;;;12.13;7.30;;;;;;;;;;4984394;28;20276;-82
2022/03/28 01:56:52;;;;;;;14.70;10.00;;;;;;;;;;4985284;28;20447;-82
2022/03/28 01:59:18;;;;;;;15.70;9.98;;;;;;;;;;4985452;28;20187;-82
2022/03/28 02:01:44;;;;;;;19.50;11.07;;;;;;;;;;4985803;28;20180;-82
2022/03/28 02:04:10;;;;;;;13.07;9.48;;;;;;;;;;4981003;28;20196;-82
2022/03/28 02:06:36;;;;;;;16.80;9.95;;;;;;;;;;4977134;28;20194;-82
2022/03/28 02:09:03;;;;;;;13.40;8.80;;;;;;;;;;4984284;28;20183;-82
2022/03/28 02:11:29;;;;;;;14.35;9.65;;;;;;;;;;4984501;28;20431;-81
2022/03/28 02:13:55;;;;;;;16.38;10.35;;;;;;;;;;4984215;28;20211;-82
2022/03/28 02:16:21;;;;;;;17.17;10.40;;;;;;;;;;4984860;28;20194;-82
2022/03/28 02:18:47;;;;;;;19.55;9.95;;;;;;;;;;4981084;28;20276;-82
2022/03/28 02:21:13;;;;;;;16.05;9.45;;;;;;;;;;4988190;28;20171;-82
2022/03/28 02:23:39;;;;;;;14.77;9.88;;;;;;;;;;4983938;28;20180;-82
2022/03/28 02:26:07;;;;;;;13.27;9.48;;;;;;;;;;4985687;28;20180;-82
2022/03/28 02:28:33;;;;;;;20.95;10.77;;;;;;;;;;4984313;28;20188;-82
2022/03/28 02:30:59;;;;;;;15.52;9.75;;;;;;;;;;4996771;28;20199;-82
2022/03/28 02:33:25;;;;;;;21.17;9.93;;;;;;;;;;4973973;28;20180;-82
2022/03/28 02:35:51;;;;;;;14.77;10.88;;;;;;;;;;4984506;28;20241;-82
2022/03/28 02:38:17;;;;;;;17.60;9.35;;;;;;;;;;4997718;28;20208;-82
2022/03/28 02:40:43;;;;;;;20.17;11.63;;;;;;;;;;4983829;28;20176;-82
2022/03/28 02:43:10;;;;;;;24.38;13.82;;;;;;;;;;4979336;28;20212;-82
2022/03/28 02:45:36;;;;;;;19.83;11.52;;;;;;;;;;4975243;28;20195;-82
2022/03/28 02:48:05;;;;;;;19.92;11.18;;;;;;;;;;4984002;28;20250;-82
2022/03/28 02:50:32;;;;;;;19.60;10.45;;;;;;;;;;4984831;28;20211;-82
2022/03/28 02:52:58;;;;;;;21.98;11.88;;;;;;;;;;4985679;28;20164;-82
2022/03/28 02:55:24;;;;;;;19.92;11.30;;;;;;;;;;4984344;28;20207;-82
2022/03/28 02:57:51;;;;;;;20.73;12.55;;;;;;;;;;4983946;28;20594;-82
2022/03/28 03:00:17;;;;;;;18.40;11.30;;;;;;;;;;4999604;28;20185;-82
2022/03/28 03:02:44;;;;;;;21.63;12.00;;;;;;;;;;4983465;28;20168;-82
2022/03/28 03:05:11;;;;;;;22.77;11.85;;;;;;;;;;4984393;28;20183;-82
2022/03/28 03:07:37;;;;;;;21.15;11.60;;;;;;;;;;4984753;28;20665;-82
2022/03/28 03:10:04;;;;;;;21.58;12.75;;;;;;;;;;4979581;28;20279;-82
2022/03/28 03:12:30;;;;;;;20.55;11.50;;;;;;;;;;4986584;28;20223;-82
2022/03/28 03:14:56;;;;;;;22.77;13.85;;;;;;;;;;4984075;28;20227;-82
2022/03/28 03:17:22;;;;;;;18.38;13.18;;;;;;;;;;4982092;28;20211;-82
2022/03/28 03:19:49;;;;;;;18.52;11.48;;;;;;;;;;4985039;28;20225;-82
2022/03/28 03:22:15;;;;;;;22.30;14.35;;;;;;;;;;4983581;28;20184;-82
2022/03/28 03:24:42;;;;;;;21.05;13.60;;;;;;;;;;4983535;28;20568;-82
2022/03/28 03:27:08;;;;;;;23.48;14.05;;;;;;;;;;4982697;28;20267;-82
2022/03/28 03:29:35;;;;;;;20.40;11.35;;;;;;;;;;4998965;28;20694;-82
2022/03/28 03:32:01;;;;;;;19.92;12.18;;;;;;;;;;4982929;28;20184;-82
2022/03/28 03:34:27;;;;;;;23.70;12.30;;;;;;;;;;4982939;28;20195;-82
2022/03/28 03:36:54;;;;;;;25.77;13.90;;;;;;;;;;4983976;28;20195;-82
2022/03/28 03:39:22;;;;;;;25.65;12.18;;;;;;;;;;4982574;28;20227;-82
2022/03/28 03:41:48;;;;;;;21.83;13.27;;;;;;;;;;4983731;28;20180;-82
2022/03/28 03:44:14;;;;;;;22.33;14.80;;;;;;;;;;4985012;28;20179;-82
2022/03/28 03:46:40;;;;;;;27.20;13.93;;;;;;;;;;4983718;28;20256;-82
2022/03/28 03:49:06;;;;;;;22.90;13.93;;;;;;;;;;4975997;28;20345;-82
2022/03/28 03:51:32;;;;;;;24.98;12.93;;;;;;;;;;4989745;28;20196;-82
2022/03/28 03:53:58;;;;;;;19.92;13.57;;;;;;;;;;4998365;28;20194;-82
2022/03/28 03:56:25;;;;;;;26.83;13.95;;;;;;;;;;4997218;28;20168;-82
2022/03/28 03:58:51;;;;;;;20.42;13.35;;;;;;;;;;4984378;28;20198;-82
2022/03/28 04:01:18;;;;;;;20.25;13.00;;;;;;;;;;4979411;28;20216;-82
2022/03/28 04:03:44;;;;;;;27.42;15.63;;;;;;;;;;4982047;28;20184;-82
2022/03/28 04:06:10;;;;;;;20.48;13.75;;;;;;;;;;4982124;28;20214;-82
2022/03/28 04:08:36;;;;;;;26.48;14.82;;;;;;;;;;4998160;28;20211;-82
2022/03/28 04:11:02;;;;;;;24.30;14.80;;;;;;;;;;4984931;28;20172;-82
2022/03/28 04:13:28;;;;;;;23.13;13.88;;;;;;;;;;4983379;28;20232;-82
2022/03/28 04:15:54;;;;;;;31.85;14.32;;;;;;;;;;4978841;28;20220;-82
2022/03/28 04:18:20;;;;;;;21.95;13.10;;;;;;;;;;4973240;28;20215;-82
2022/03/28 04:20:47;;;;;;;29.00;14.50;;;;;;;;;;4982930;28;20266;-82
2022/03/28 04:23:13;;;;;;;27.92;16.65;;;;;;;;;;4984219;28;20175;-82
2022/03/28 04:25:39;;;;;;;27.02;14.48;;;;;;;;;;4981919;28;20192;-82
2022/03/28 04:28:08;;;;;;;23.45;15.60;;;;;;;;;;4983068;28;20572;-82
2022/03/28 04:30:34;;;;;;;28.77;16.40;;;;;;;;;;4983595;28;20184;-82
2022/03/28 04:33:00;;;;;;;29.95;16.60;;;;;;;;;;4978157;28;20582;-82
2022/03/28 04:35:29;;;;;;;36.78;17.20;;;;;;;;;;4984124;28;20187;-82
2022/03/28 04:37:55;;;;;;;24.92;15.73;;;;;;;;;;4980534;28;20701;-82
2022/03/28 04:40:21;;;;;;;28.90;16.30;;;;;;;;;;4983198;28;20187;-82
2022/03/28 04:42:48;;;;;;;28.17;16.30;;;;;;;;;;4978219;28;20189;-82
2022/03/28 04:45:14;;;;;;;32.05;17.10;;;;;;;;;;4993638;28;20200;-81
2022/03/28 04:47:40;;;;;;;27.65;15.70;;;;;;;;;;4984138;28;20215;-82
2022/03/28 04:50:07;;;;;;;31.00;16.73;;;;;;;;;;4986724;28;20179;-82
2022/03/28 04:52:33;;;;;;;32.50;17.98;;;;;;;;;;4985677;28;20296;-82
2022/03/28 04:54:59;;;;;;;33.55;17.17;;;;;;;;;;4986767;28;20191;-82
2022/03/28 04:57:25;;;;;;;32.73;17.40;;;;;;;;;;4985421;28;20282;-82
2022/03/28 04:59:51;;;;;;;33.22;15.60;;;;;;;;;;4985205;28;20523;-82
2022/03/28 05:02:17;;;;;;;32.85;17.70;;;;;;;;;;4999015;28;20177;-82
2022/03/28 05:04:43;;;;;;;27.13;16.85;;;;;;;;;;4987577;28;20252;-82
2022/03/28 05:07:09;;;;;;;31.95;18.10;;;;;;;;;;4986088;28;20191;-83
2022/03/28 05:09:35;;;;;;;30.67;17.42;;;;;;;;;;4984979;28;20238;-82
2022/03/28 05:12:01;;;;;;;32.97;17.95;;;;;;;;;;4984790;28;20219;-82
2022/03/28 05:14:27;;;;;;;34.47;19.63;;;;;;;;;;4986274;28;20212;-82
2022/03/28 05:16:53;;;;;;;37.00;19.70;;;;;;;;;;4986202;28;20198;-82
2022/03/28 05:19:19;;;;;;;37.30;18.83;;;;;;;;;;4986217;28;20239;-82
2022/03/28 05:21:45;;;;;;;33.92;18.83;;;;;;;;;;4986720;28;20443;-82
2022/03/28 05:24:11;;;;;;;34.70;18.27;;;;;;;;;;4984446;28;20180;-82
2022/03/28 05:26:37;;;;;;;40.30;18.30;;;;;;;;;;5001002;28;20183;-82
2022/03/28 05:29:03;;;;;;;34.78;18.45;;;;;;;;;;4985705;28;20559;-82
2022/03/28 05:31:29;;;;;;;30.40;17.80;;;;;;;;;;4986170;28;20195;-82
2022/03/28 05:33:55;;;;;;;31.50;18.98;;;;;;;;;;4981213;28;20220;-82
2022/03/28 05:36:21;;;;;;;39.35;18.95;;;;;;;;;;4975392;28;20184;-82
2022/03/28 05:38:47;;;;;;;38.58;18.50;;;;;;;;;;4985875;28;20203;-82
2022/03/28 05:41:13;;;;;;;31.95;20.15;;;;;;;;;;4986930;28;20634;-82
2022/03/28 05:43:39;;;;;;;37.25;19.35;;;;;;;;;;4999956;28;20196;-82
2022/03/28 05:46:05;;;;;;;35.22;18.58;;;;;;;;;;4985153;28;20191;-83
2022/03/28 05:48:32;;;;;;;34.95;17.88;;;;;;;;;;4984351;28;20188;-82
2022/03/28 05:50:58;;;;;;;40.28;20.05;;;;;;;;;;4985515;28;20294;-83
2022/03/28 05:53:24;;;;;;;31.83;19.25;;;;;;;;;;4986100;28;20244;-83
2022/03/28 05:55:50;;;;;;;36.45;19.02;;;;;;;;;;4985829;28;20172;-83
2022/03/28 05:58:16;;;;;;;36.80;20.80;;;;;;;;;;4984197;28;20218;-83
2022/03/28 06:00:42;;;;;;;40.20;21.42;;;;;;;;;;4985493;28;20217;-83
2022/03/28 06:03:09;;;;;;;38.38;20.13;;;;;;;;;;4985234;28;20180;-82
2022/03/28 06:05:38;;;;;;;35.70;20.00;;;;;;;;;;4999765;28;20215;-83
2022/03/28 06:08:05;;;;;;;46.88;22.63;;;;;;;;;;4984901;28;20265;-83
2022/03/28 06:10:31;;;;;;;35.75;18.40;;;;;;;;;;4997348;28;20195;-83
2022/03/28 06:12:57;;;;;;;36.65;20.02;;;;;;;;;;4979095;28;20232;-82
2022/03/28 06:15:24;;;;;;;39.20;20.40;;;;;;;;;;4983823;28;20193;-82
2022/03/28 06:17:50;;;;;;;39.53;20.60;;;;;;;;;;4983257;28;20215;-83
2022/03/28 06:20:16;;;;;;;36.28;19.25;;;;;;;;;;4997726;28;20180;-83
2022/03/28 06:22:42;;;;;;;39.22;19.98;;;;;;;;;;4986020;28;20240;-83
2022/03/28 06:25:09;;;;;;;41.13;20.70;;;;;;;;;;4980269;28;20271;-82
2022/03/28 06:27:41;;;;;;;40.50;20.98;;;;;;;;;;4991380;28;20196;-83
2022/03/28 06:30:09;;;;;;;35.50;21.08;;;;;;;;;;4999758;28;20176;-83
2022/03/28 06:32:35;;;;;;;40.90;20.35;;;;;;;;;;4999437;28;20204;-83
2022/03/28 06:35:01;;;;;;;47.35;22.15;;;;;;;;;;4986677;28;20176;-83
2022/03/28 06:37:27;;;;;;;36.00;21.45;;;;;;;;;;4984397;28;20207;-83
2022/03/28 06:39:53;;;;;;;38.22;19.15;;;;;;;;;;4985344;28;20179;-83
2022/03/28 06:42:19;;;;;;;43.15;20.33;;;;;;;;;;4984364;28;20188;-83
2022/03/28 06:44:45;;;;;;;30.42;19.17;;;;;;;;;;4983721;28;20269;-82
2022/03/28 06:47:11;;;;;;;37.78;20.85;;;;;;;;;;4978961;28;20246;-83
2022/03/28 06:49:37;;;;;;;35.42;19.05;;;;;;;;;;4983496;28;20218;-83
2022/03/28 06:52:03;;;;;;;35.65;18.75;;;;;;;;;;4983370;28;20184;-82
2022/03/28 06:54:29;;;;;;;36.78;19.95;;;;;;;;;;4999411;28;20188;-83
2022/03/28 06:56:55;;;;;;;38.28;19.55;;;;;;;;;;4984357;28;20187;-80
2022/03/28 06:59:23;;;;;;;40.10;21.00;;;;;;;;;;4985277;28;20454;-80
2022/03/28 07:01:49;;;;;;;45.83;22.70;;;;;;;;;;4982963;28;20207;-80
2022/03/28 07:04:15;;;;;;;47.15;20.25;;;;;;;;;;4978785;28;20199;-80
2022/03/28 07:06:41;;;;;;;41.78;21.25;;;;;;;;;;4979151;28;20183;-80
2022/03/28 07:09:07;;;;;;;42.15;19.83;;;;;;;;;;4983722;28;20176;-80
2022/03/28 07:11:33;;;;;;;34.28;21.98;;;;;;;;;;4983415;28;20239;-80
2022/03/28 07:14:01;;;;;;;42.40;22.15;;;;;;;;;;4983563;28;20207;-80
2022/03/28 07:16:27;;;;;;;39.10;20.27;;;;;;;;;;4995208;28;20392;-80
2022/03/28 07:18:53;;;;;;;41.03;22.60;;;;;;;;;;4982652;28;20250;-79
2022/03/28 07:21:19;;;;;;;47.63;24.20;;;;;;;;;;4984205;28;20183;-81
2022/03/28 07:23:45;;;;;;;38.95;22.83;;;;;;;;;;4982070;28;20257;-80
2022/03/28 07:26:11;;;;;;;39.25;21.85;;;;;;;;;;4980595;28;20200;-80
2022/03/28 07:28:39;;;;;;;50.63;25.83;;;;;;;;;;4991322;28;20184;-80
2022/03/28 07:31:08;;;;;;;47.75;26.35;;;;;;;;;;4974266;28;20183;-80
2022/03/28 07:33:36;;;;;;;42.72;25.35;;;;;;;;;;4982629;28;20242;-79
2022/03/28 07:36:02;;;;;;;47.47;25.08;;;;;;;;;;4981300;28;20187;-80
2022/03/28 07:38:28;;;;;;;51.88;26.65;;;;;;;;;;4982710;28;20223;-80
2022/03/28 07:40:54;;;;;;;47.20;26.50;;;;;;;;;;4984495;28;20368;-79
2022/03/28 07:43:20;;;;;;;48.83;27.40;;;;;;;;;;4983313;28;20434;-80
2022/03/28 07:45:48;;;;;;;42.75;25.48;;;;;;;;;;4980082;28;20652;-80
2022/03/28 07:48:14;;;;;;;48.25;26.60;;;;;;;;;;4984164;28;20204;-80
2022/03/28 07:50:41;;;;;;;53.40;25.63;;;;;;;;;;4983389;28;20214;-80
2022/03/28 07:53:07;;;;;;;41.03;24.00;;;;;;;;;;4983747;28;20199;-80
2022/03/28 07:55:33;;;;;;;54.45;24.67;;;;;;;;;;4980818;28;20183;-80
2022/03/28 07:58:02;;;;;;;48.45;25.27;;;;;;;;;;4983250;28;20212;-80
2022/03/28 08:00:29;;;;;;;43.90;25.40;;;;;;;;;;4981812;28;20579;-80
2022/03/28 08:02:56;;;;;;;45.92;24.10;;;;;;;;;;4982346;28;20202;-80
2022/03/28 08:05:22;;;;;;;49.38;26.15;;;;;;;;;;4983537;28;20176;-80
2022/03/28 08:07:52;;;;;;;50.58;25.65;;;;;;;;;;4983731;28;20206;-80
2022/03/28 08:10:19;;;;;;;42.20;25.23;;;;;;;;;;4984176;28;20219;-80
2022/03/28 08:12:45;;;;;;;49.70;26.08;;;;;;;;;;4977538;28;20283;-80
2022/03/28 08:15:12;;;;;;;47.22;25.63;;;;;;;;;;4972389;28;20255;-80
2022/03/28 08:17:39;;;;;;;50.85;25.63;;;;;;;;;;4983318;28;20215;-80
2022/03/28 08:20:06;;;;;;;51.60;26.95;;;;;;;;;;4981860;28;20180;-80
2022/03/28 08:22:32;;;;;;;47.72;25.83;;;;;;;;;;4985351;28;20192;-81
2022/03/28 08:24:58;;;;;;;49.22;25.55;;;;;;;;;;4984713;28;20184;-80
2022/03/28 08:27:25;;;;;;;47.00;23.70;;;;;;;;;;4977517;28;20246;-80
2022/03/28 08:29:51;;;;;;;45.33;26.05;;;;;;;;;;4982608;28;20223;-80
2022/03/28 08:32:17;;;;;;;41.28;24.15;;;;;;;;;;4986663;28;20190;-81
2022/03/28 08:34:46;;;;;;;43.47;24.30;;;;;;;;;;4982224;28;20188;-81
2022/03/28 08:37:16;;;;;;;41.90;25.25;;;;;;;;;;4983386;28;20482;-81
2022/03/28 08:39:42;;;;;;;42.92;23.73;;;;;;;;;;4987064;28;20199;-81
2022/03/28 08:42:08;;;;;;;38.45;22.40;;;;;;;;;;4984342;28;20533;-80
2022/03/28 08:44:34;;;;;;;49.90;26.17;;;;;;;;;;4980723;28;20191;-81
2022/03/28 08:47:00;;;;;;;43.17;26.75;;;;;;;;;;4984738;28;20184;-80
2022/03/28 08:49:26;;;;;;;46.10;24.63;;;;;;;;;;4975820;28;20189;-80
2022/03/28 08:51:52;;;;;;;46.65;24.30;;;;;;;;;;4980174;28;20203;-80
2022/03/28 08:54:19;;;;;;;52.42;26.35;;;;;;;;;;4984506;28;20191;-80
2022/03/28 08:56:45;;;;;;;34.97;23.08;;;;;;;;;;4984827;28;20203;-80
2022/03/28 08:59:11;;;;;;;41.50;24.90;;;;;;;;;;4982324;28;20235;-80
2022/03/28 09:01:37;;;;;;;44.23;26.97;;;;;;;;;;4985394;28;20242;-81
2022/03/28 09:04:07;;;;;;;42.00;22.85;;;;;;;;;;4986212;28;20435;-80
2022/03/28 09:06:34;;;;;;;37.95;25.08;;;;;;;;;;5003240;28;20187;-80
2022/03/28 09:09:21;;;;;;;42.10;24.88;;;;;;;;;;4992495;28;20181;-80
2022/03/28 09:11:50;;;;;;;39.70;25.23;;;;;;;;;;4985598;28;20220;-79
2022/03/28 09:14:25;;;;;;;49.25;24.85;;;;;;;;;;4984783;28;20180;-80
2022/03/28 09:17:21;;;;;;;40.72;26.20;;;;;;;;;;4984131;28;20187;-81
2022/03/28 09:19:55;;;;;;;41.28;23.70;;;;;;;;;;4990615;28;20192;-80
2022/03/28 09:22:25;;;;;;;44.22;25.17;;;;;;;;;;4980590;28;20200;-81
2022/03/28 09:24:52;;;;;;;40.55;24.63;;;;;;;;;;4973787;28;20183;-80
2022/03/28 09:27:18;;;;;;;42.30;25.50;;;;;;;;;;4985403;28;20254;-79
2022/03/28 09:30:02;;;;;;;42.88;25.13;;;;;;;;;;4984513;28;20196;-80
2022/03/28 09:32:30;;;;;;;42.65;23.55;;;;;;;;;;4982174;28;20276;-80
2022/03/28 09:35:12;;;;;;;44.83;26.50;;;;;;;;;;4984986;28;20316;-80
2022/03/28 09:37:58;;;;;;;43.97;26.58;;;;;;;;;;4993301;28;20207;-80
2022/03/28 09:40:30;;;;;;;42.42;24.92;;;;;;;;;;4992421;28;20219;-80
2022/03/28 09:42:57;;;;;;;43.50;24.13;;;;;;;;;;4973737;28;20183;-80
2022/03/28 09:45:24;;;;;;;41.65;25.80;;;;;;;;;;4984467;28;20181;-80
2022/03/28 09:47:59;;;;;;;46.28;26.33;;;;;;;;;;4984481;28;20213;-80
2022/03/28 09:50:41;;;;;;;41.03;24.35;;;;;;;;;;4981273;28;20184;-82
2022/03/28 09:53:18;;;;;;;41.00;24.48;;;;;;;;;;4985078;28;20629;-80
2022/03/28 09:55:48;;;;;;;38.75;24.02;;;;;;;;;;4983507;28;20183;-80
2022/03/28 09:58:33;;;;;;;46.45;25.08;;;;;;;;;;4982944;28;20216;-80
2022/03/28 10:01:00;;;;;;;42.75;23.05;;;;;;;;;;4981256;28;20198;-79
2022/03/28 10:03:26;;;;;;;37.70;22.48;;;;;;;;;;4982315;28;20196;-80
2022/03/28 10:05:53;;;;;;;37.38;24.38;;;;;;;;;;4984712;28;20209;-81
2022/03/28 10:08:19;;;;;;;39.58;23.65;;;;;;;;;;4986073;28;20199;-80
2022/03/28 10:10:45;;;;;;;42.67;25.10;;;;;;;;;;4985882;28;20242;-80
2022/03/28 10:13:11;;;;;;;44.08;26.25;;;;;;;;;;4984738;28;20543;-80
2022/03/28 10:15:37;;;;;;;39.67;22.98;;;;;;;;;;4984543;28;20194;-80
2022/03/28 10:18:04;;;;;;;34.50;22.92;;;;;;;;;;4998400;28;20204;-79
2022/03/28 10:20:30;;;;;;;33.70;21.75;;;;;;;;;;4984471;28;20164;-80
2022/03/28 10:22:57;;;;;;;44.42;22.38;;;;;;;;;;4982966;28;20649;-80
2022/03/28 10:25:25;;;;;;;40.22;22.05;;;;;;;;;;4994720;28;20173;-80
2022/03/28 10:27:52;;;;;;;41.05;24.20;;;;;;;;;;4978885;28;20282;-80
2022/03/28 10:30:24;;;;;;;37.30;21.92;;;;;;;;;;4982195;28;20183;-80
2022/03/28 10:33:09;;;;;;;39.28;24.45;;;;;;;;;;4976379;28;20661;-80
2022/03/28 10:35:35;;;;;;;46.78;22.00;;;;;;;;;;4998148;28;20186;-80
2022/03/28 10:38:15;;;;;;;38.75;23.00;;;;;;;;;;4985386;28;20242;-80
2022/03/28 10:40:52;;;;;;;44.53;25.45;;;;;;;;;;4996569;28;20180;-80
2022/03/28 10:43:19;;;;;;;40.20;23.45;;;;;;;;;;4981318;28;20207;-81
2022/03/28 10:45:45;;;;;;;43.17;22.48;;;;;;;;;;4982286;28;20180;-81
2022/03/28 10:48:11;;;;;;;39.23;22.00;;;;;;;;;;4982431;28;20203;-79
2022/03/28 10:50:43;;;;;;;34.25;21.27;;;;;;;;;;4998359;28;20463;-80
2022/03/28 10:53:17;;;;;;;36.85;22.20;;;;;;;;;;4984213;28;20525;-81
2022/03/28 10:55:43;;;;;;;38.42;22.15;;;;;;;;;;4984700;28;20195;-80
2022/03/28 10:58:11;;;;;;;30.33;20.92;;;;;;;;;;4982564;28;20199;-80
2022/03/28 11:00:37;;;;;;;35.88;21.23;;;;;;;;;;4981911;28;20206;-80
2022/03/28 11:03:04;;;;;;;34.33;19.37;;;;;;;;;;4981689;28;20195;-80
2022/03/28 11:05:31;;;;;;;33.47;20.05;;;;;;;;;;4998828;28;20435;-80
2022/03/28 11:08:26;;;;;;;29.05;19.63;;;;;;;;;;4983982;28;20190;-79
2022/03/28 11:11:10;;;;;;;35.35;19.55;;;;;;;;;;4983867;28;20255;-80
2022/03/28 11:13:36;;;;;;;37.58;20.73;;;;;;;;;;4977224;28;20236;-80
2022/03/28 11:16:02;;;;;;;25.77;17.70;;;;;;;;;;4983557;28;20255;-81
2022/03/28 11:18:29;;;;;;;30.77;18.80;;;;;;;;;;4980766;28;20264;-80
2022/03/28 11:20:55;;;;;;;39.38;20.50;;;;;;;;;;4973875;28;20473;-81
2022/03/28 11:23:22;;;;;;;32.42;19.65;;;;;;;;;;4982814;28;20185;-81
2022/03/28 11:25:53;;;;;;;36.08;21.25;;;;;;;;;;4982939;28;20205;-81
2022/03/28 11:28:22;;;;;;;32.70;20.40;;;;;;;;;;4995211;28;20213;-81
2022/03/28 11:30:50;;;;;;;30.95;18.60;;;;;;;;;;4974771;28;20285;-81
2022/03/28 11:33:17;;;;;;;32.83;19.80;;;;;;;;;;4984570;28;20189;-81
2022/03/28 11:35:56;;;;;;;33.00;18.00;;;;;;;;;;4998172;28;20440;-83
2022/03/28 11:38:26;;;;;;;29.00;16.35;;;;;;;;;;4979501;28;20212;-81
2022/03/28 11:40:53;;;;;;;30.27;16.65;;;;;;;;;;4983022;28;20186;-80
2022/03/28 11:43:26;;;;;;;30.45;17.77;;;;;;;;;;4983402;28;20186;-81
2022/03/28 11:45:54;;;;;;;29.63;17.25;;;;;;;;;;4974324;28;20246;-81
2022/03/28 11:48:20;;;;;;;27.85;16.95;;;;;;;;;;4987811;28;20184;-81
2022/03/28 11:50:47;;;;;;;27.83;16.60;;;;;;;;;;4998107;28;20206;-81
2022/03/28 11:53:17;;;;;;;29.27;16.40;;;;;;;;;;4980311;28;20431;-81
2022/03/28 11:55:47;;;;;;;27.83;17.00;;;;;;;;;;4982402;28;20410;-80
2022/03/28 11:58:16;;;;;;;28.80;18.33;;;;;;;;;;4981724;28;20472;-80
2022/03/28 12:00:48;;;;;;;27.57;17.43;;;;;;;;;;4979717;28;20438;-81
2022/03/28 12:03:18;;;;;;;29.53;19.50;;;;;;;;;;4987754;28;20935;-81
2022/03/28 12:05:45;;;;;;;28.77;18.17;;;;;;;;;;4971668;28;20406;-80
2022/03/28 12:08:18;;;;;;;30.40;17.43;;;;;;;;;;4985818;28;21017;-81
2022/03/28 12:10:51;;;;;;;26.70;18.60;;;;;;;;;;5002726;28;20427;-81
2022/03/28 12:13:18;;;;;;;31.20;18.77;;;;;;;;;;4982444;28;20498;-81
2022/03/28 12:15:46;;;;;;;29.87;19.80;;;;;;;;;;4982173;28;20418;-80
2022/03/28 12:18:13;;;;;;;30.07;20.57;;;;;;;;;;4986537;28;20733;-80
2022/03/28 12:20:40;;;;;;;31.60;18.63;;;;;;;;;;4986975;28;20528;-81
2022/03/28 12:23:07;;;;;;;26.50;17.70;;;;;;;;;;4987083;28;20493;-81
2022/03/28 12:25:37;;;;;;;30.60;19.13;;;;;;;;;;4987506;28;20435;-81
2022/03/28 12:28:06;;;;;;;28.03;16.27;;;;;;;;;;4986894;28;20457;-80
2022/03/28 12:30:41;;;;;;;29.87;18.20;;;;;;;;;;4985279;28;20456;-80
2022/03/28 12:33:12;;;;;;;29.87;18.03;;;;;;;;;;4985799;28;20436;-80
2022/03/28 12:35:39;;;;;;;30.57;17.30;;;;;;;;;;5001988;28;20451;-78
2022/03/28 12:38:07;;;;;;;27.07;20.13;;;;;;;;;;4986418;28;20464;-80
2022/03/28 12:40:34;;;;;;;27.03;17.10;;;;;;;;;;4986989;28;20436;-81
2022/03/28 12:43:04;;;;;;;30.33;19.63;;;;;;;;;;4983150;28;20440;-80
2022/03/28 12:45:31;;;;;;;26.57;17.50;;;;;;;;;;4983773;28;20414;-81
2022/03/28 12:48:06;;;;;;;26.37;17.43;;;;;;;;;;4982840;28;20440;-81
2022/03/28 12:50:32;;;;;;;26.37;17.70;;;;;;;;;;4983962;28;20869;-79
2022/03/28 12:53:11;;;;;;;29.73;18.27;;;;;;;;;;4985884;28;20533;-80
2022/03/28 12:55:38;;;;;;;23.47;17.10;;;;;;;;;;4977216;28;20507;-82
2022/03/28 12:58:04;;;;;;;26.70;17.90;;;;;;;;;;4985077;28;20473;-82
2022/03/28 13:00:31;;;;;;;26.53;17.00;;;;;;;;;;4985041;28;20458;-80
2022/03/28 13:03:01;;;;;;;28.20;18.90;;;;;;;;;;4999904;28;20430;-80
2022/03/28 13:05:28;;;;;;;31.53;20.43;;;;;;;;;;4985539;28;20433;-81
2022/03/28 13:08:03;;;;;;;33.73;22.13;;;;;;;;;;4986039;28;20441;-81
2022/03/28 13:10:32;;;;;;;22.03;16.80;;;;;;;;;;4981200;28;20450;-80
2022/03/28 13:12:58;;;;;;;28.33;18.70;;;;;;;;;;4980323;28;20477;-80
2022/03/28 13:15:27;;;;;;;28.30;20.20;;;;;;;;;;4985806;28;20523;-81
2022/03/28 13:18:14;;;;;;;22.00;17.33;;;;;;;;;;4985524;28;20462;-81
2022/03/28 13:20:41;;;;;;;23.47;17.40;;;;;;;;;;4984297;28;20509;-81
2022/03/28 13:23:24;;;;;;;24.33;16.83;;;;;;;;;;4987708;28;20458;-79
2022/03/28 13:25:50;;;;;;;20.20;16.33;;;;;;;;;;4999480;28;20416;-80
2022/03/28 13:28:26;;;;;;;24.83;17.80;;;;;;;;;;4981397;28;20959;-80
2022/03/28 13:30:56;;;;;;;22.20;17.20;;;;;;;;;;4981216;28;20441;-80
2022/03/28 13:33:22;;;;;;;23.27;16.90;;;;;;;;;;4975612;28;20446;-80
2022/03/28 13:35:49;;;;;;;21.83;15.80;;;;;;;;;;4984542;28;20439;-80
2022/03/28 13:38:16;;;;;;;19.60;15.00;;;;;;;;;;4987299;28;20529;-80
2022/03/28 13:40:44;;;;;;;20.70;15.70;;;;;;;;;;4996848;28;20427;-81
2022/03/28 13:43:10;;;;;;;19.50;15.80;;;;;;;;;;4979338;28;20454;-81
2022/03/28 13:45:36;;;;;;;22.77;15.73;;;;;;;;;;4985271;28;20481;-81
2022/03/28 13:48:04;;;;;;;22.77;14.77;;;;;;;;;;4985242;28;20443;-81
2022/03/28 13:50:30;;;;;;;20.30;14.70;;;;;;;;;;4986164;28;20411;-81
2022/03/28 13:52:57;;;;;;;23.73;14.70;;;;;;;;;;4986742;28;20422;-81
2022/03/28 13:55:23;;;;;;;20.60;15.00;;;;;;;;;;4985484;28;20438;-81
2022/03/28 13:57:49;;;;;;;21.80;14.60;;;;;;;;;;4985228;28;20948;-80
2022/03/28 14:00:16;;;;;;;23.00;12.90;;;;;;;;;;4984449;28;20442;-80
2022/03/28 14:02:42;;;;;;;19.30;13.73;;;;;;;;;;4985474;28;20421;-80
2022/03/28 14:05:08;;;;;;;19.93;14.23;;;;;;;;;;4982271;28;20398;-80
2022/03/28 14:07:35;;;;;;;21.40;13.33;;;;;;;;;;4982298;28;20446;-81
2022/03/28 14:10:02;;;;;;;22.03;14.10;;;;;;;;;;4984024;28;20416;-81
2022/03/28 14:12:29;;;;;;;19.67;13.43;;;;;;;;;;4985104;28;20449;-82
2022/03/28 14:14:55;;;;;;;22.37;15.57;;;;;;;;;;4983674;28;20422;-81
2022/03/28 14:17:21;;;;;;;19.33;14.53;;;;;;;;;;4995807;28;20439;-81
2022/03/28 14:19:48;;;;;;;21.13;12.63;;;;;;;;;;4984373;28;20392;-79
2022/03/28 14:22:14;;;;;;;22.13;14.97;;;;;;;;;;4984826;28;20512;-80
2022/03/28 14:24:40;;;;;;;25.80;12.93;;;;;;;;;;4997557;28;20448;-82